Rechercher aéroport 
image banner adimage banner adimage banner ad
image banner ad

36PN - Us Army Reserve Center

Situé à Edgemont, United States

ICAO - 36PN, IATA -

Données fournies par Airmate  

Information générale

Coordonnées: N39°58'0" W75°27'9"
Élévation : 480 feet MSL.
Variation magnétique : -11° East
Voir autres Aéroports à Pennsylvania

Données opérationnelles

Special qualification required
Heure actuelle UTC:
Heure actuelle locale:
Météo à : KOQN - Brandywine ( 11 km )
METAR: KOQN 150715Z AUTO 32004KT 10SM SCT055 17/16 A2977 RMK AO2 LTG DSNT SW
Voir NOTAMs / SUP AIP / TFR affectant cet aéroport [VIEW]
Fréquences de communication: [VIEW]

Pistes:

Coordonnées de l'aéroport

Adresse: Edgemont United States

Vue satellite de 36PN